createdAt,value
2023-03-01T00:01:32.118Z,103157.84
2023-03-01T00:04:01.167Z,103167.44
2023-03-01T00:06:29.625Z,103158.59
2023-03-01T00:08:57.754Z,103150.00
2023-03-01T00:11:28.442Z,103153.59
2023-03-01T00:13:58.718Z,103147.66
2023-03-01T00:16:28.839Z,103143.06
2023-03-01T00:18:57.189Z,103148.41
2023-03-01T00:21:26.001Z,103156.38
2023-03-01T00:23:54.168Z,103136.44
2023-03-01T00:26:23.565Z,103138.13
2023-03-01T00:28:53.137Z,103147.03
2023-03-01T00:31:23.140Z,103141.84
2023-03-01T00:33:53.920Z,103150.91
2023-03-01T00:36:21.626Z,103157.25
2023-03-01T00:38:49.226Z,103152.25
2023-03-01T00:41:18.758Z,103156.09
2023-03-01T00:43:47.078Z,103152.03
2023-03-01T00:46:18.561Z,103155.72
2023-03-01T00:48:46.447Z,103164.78
2023-03-01T00:51:16.048Z,103162.47
2023-03-01T00:53:44.497Z,103167.88
2023-03-01T00:56:14.488Z,103159.47
2023-03-01T00:58:42.404Z,103163.06
2023-03-01T01:01:18.403Z,103163.22
2023-03-01T01:03:49.539Z,103164.22
2023-03-01T01:06:19.042Z,103158.97
2023-03-01T01:08:46.843Z,103160.84
2023-03-01T01:11:14.924Z,103163.53
2023-03-01T01:13:43.351Z,103167.09
2023-03-01T01:16:10.989Z,103158.41
2023-03-01T01:18:38.661Z,103148.84
2023-03-01T01:21:09.626Z,103150.53
2023-03-01T01:23:38.621Z,103145.28
2023-03-01T01:26:08.230Z,103146.28
2023-03-01T01:28:36.308Z,103142.81
2023-03-01T01:31:03.999Z,103149.88
2023-03-01T01:33:32.049Z,103145.69
2023-03-01T01:35:59.656Z,103139.41
2023-03-01T01:38:28.647Z,103138.66
2023-03-01T01:40:56.366Z,103132.59
2023-03-01T01:43:26.847Z,103135.31
2023-03-01T01:45:58.529Z,103131.69
2023-03-01T01:48:41.191Z,103125.66
2023-03-01T01:51:13.608Z,103129.16
2023-03-01T01:53:45.402Z,103117.69
2023-03-01T01:56:15.179Z,103121.19
2023-03-01T01:58:44.701Z,103120.16
2023-03-01T02:01:12.789Z,103108.81
2023-03-01T02:03:44.788Z,103113.16
2023-03-01T02:06:19.121Z,103112.22
2023-03-01T02:08:50.737Z,103108.50
2023-03-01T02:11:20.421Z,103097.94
2023-03-01T02:13:50.090Z,103104.81
2023-03-01T02:16:18.695Z,103099.56
2023-03-01T02:18:47.413Z,103099.56
2023-03-01T02:21:34.142Z,103108.19
2023-03-01T02:24:19.272Z,103105.34
2023-03-01T02:26:53.467Z,103101.72
2023-03-01T02:29:23.039Z,103098.38
2023-03-01T02:31:53.264Z,103098.47
2023-03-01T02:34:26.069Z,103097.69
2023-03-01T02:36:58.532Z,103099.56
2023-03-01T02:39:28.629Z,103095.16
2023-03-01T02:41:58.373Z,103086.41
2023-03-01T02:44:27.721Z,103090.13
2023-03-01T02:46:59.592Z,103079.69
2023-03-01T02:49:28.972Z,103085.00
2023-03-01T02:52:23.970Z,103086.88
2023-03-01T02:54:58.235Z,103086.31
2023-03-01T02:57:28.315Z,103090.72
2023-03-01T02:59:59.437Z,103086.56
2023-03-01T03:02:37.664Z,103085.88
2023-03-01T03:05:09.331Z,103078.06
2023-03-01T03:07:38.748Z,103074.75
2023-03-01T03:10:09.949Z,103071.44
2023-03-01T03:12:37.530Z,103069.56
2023-03-01T03:15:09.796Z,103064.41
2023-03-01T03:17:38.373Z,103059.22
2023-03-01T03:20:11.798Z,103072.34
2023-03-01T03:22:40.361Z,103072.66
2023-03-01T03:25:11.310Z,103071.88
2023-03-01T03:27:39.512Z,103070.16
2023-03-01T03:30:13.228Z,103061.53
2023-03-01T03:32:40.938Z,103056.28
2023-03-01T03:35:10.928Z,103064.06
2023-03-01T03:37:56.441Z,103049.25
2023-03-01T03:40:24.036Z,103051.78
2023-03-01T03:42:51.687Z,103052.81
2023-03-01T03:45:21.156Z,103044.22
2023-03-01T03:47:48.751Z,103044.16
2023-03-01T03:50:18.155Z,103041.44
2023-03-01T03:52:45.946Z,103046.53
2023-03-01T03:55:14.814Z,103044.78
2023-03-01T03:57:43.660Z,103043.75
2023-03-01T04:00:13.997Z,103035.97
2023-03-01T04:02:44.252Z,103033.56
2023-03-01T04:05:13.608Z,103034.72
2023-03-01T04:07:41.216Z,103030.47
2023-03-01T04:10:15.779Z,103033.09
2023-03-01T04:12:44.159Z,103036.19
2023-03-01T04:15:16.743Z,103034.56
2023-03-01T04:17:47.476Z,103031.94
2023-03-01T04:20:18.250Z,103021.78
2023-03-01T04:22:47.868Z,103035.88
2023-03-01T04:25:16.326Z,103033.44
2023-03-01T04:27:43.916Z,103033.69
2023-03-01T04:30:12.580Z,103036.38
2023-03-01T04:32:40.197Z,103030.25
2023-03-01T04:35:10.346Z,103035.50
2023-03-01T04:37:38.001Z,103035.59
2023-03-01T04:40:13.923Z,103031.25
2023-03-01T04:42:41.666Z,103042.41
2023-03-01T04:45:14.034Z,103032.06
2023-03-01T04:47:43.676Z,103038.06
2023-03-01T04:50:15.590Z,103031.91
2023-03-01T04:52:43.746Z,103038.00
2023-03-01T04:55:12.257Z,103034.38
2023-03-01T04:57:40.261Z,103030.34
2023-03-01T05:00:20.930Z,103033.97
2023-03-01T05:02:55.124Z,103028.63
2023-03-01T05:05:27.833Z,103033.97
2023-03-01T05:07:56.927Z,103025.59
2023-03-01T05:10:25.503Z,103029.88
2023-03-01T05:12:54.279Z,103029.94
2023-03-01T05:15:22.858Z,103026.59
2023-03-01T05:17:50.736Z,103036.28
2023-03-01T05:20:18.447Z,103026.69
2023-03-01T05:22:47.360Z,103027.59
2023-03-01T05:25:15.706Z,103029.75
2023-03-01T05:27:43.309Z,103038.63
2023-03-01T05:30:16.088Z,103042.88
2023-03-01T05:32:45.571Z,103048.03
2023-03-01T05:35:15.126Z,103053.25
2023-03-01T05:37:44.125Z,103052.22
2023-03-01T05:40:17.396Z,103045.53
2023-03-01T05:42:45.881Z,103049.81
2023-03-01T05:45:15.014Z,103046.25
2023-03-01T05:47:44.662Z,103043.63
2023-03-01T05:50:14.605Z,103040.88
2023-03-01T05:52:42.525Z,103040.94
2023-03-01T05:55:11.143Z,103042.78
2023-03-01T05:57:40.089Z,103037.47
2023-03-01T06:00:09.141Z,103041.16
2023-03-01T06:02:36.978Z,103046.69
2023-03-01T06:05:04.918Z,103053.69
2023-03-01T06:07:33.336Z,103058.41
2023-03-01T06:10:01.094Z,103055.91
2023-03-01T06:12:32.485Z,103055.91
2023-03-01T06:15:01.515Z,103050.81
2023-03-01T06:17:31.486Z,103051.16
2023-03-01T06:19:59.153Z,103052.13
2023-03-01T06:22:26.782Z,103063.47
2023-03-01T06:24:54.421Z,103051.38
2023-03-01T06:27:22.033Z,103048.66
2023-03-01T06:29:49.874Z,103049.53
2023-03-01T06:32:19.478Z,103057.38
2023-03-01T06:34:47.699Z,103050.22
2023-03-01T06:37:15.415Z,103046.75
2023-03-01T06:39:43.012Z,103045.84
2023-03-01T06:42:11.884Z,103043.84
2023-03-01T06:44:39.888Z,103041.16
2023-03-01T06:47:07.561Z,103043.50
2023-03-01T06:49:36.503Z,103041.59
2023-03-01T06:52:04.561Z,103044.00
2023-03-01T06:54:32.236Z,103045.53
2023-03-01T06:56:59.950Z,103052.31
2023-03-01T06:59:27.706Z,103039.56
2023-03-01T07:01:55.305Z,103053.34
2023-03-01T07:04:22.859Z,103041.13
2023-03-01T07:06:56.052Z,103039.13
2023-03-01T07:09:24.167Z,103044.88
2023-03-01T07:11:52.054Z,103045.22
2023-03-01T07:14:20.710Z,103045.69
2023-03-01T07:16:48.784Z,103045.31
2023-03-01T07:19:16.374Z,103050.25
2023-03-01T07:21:44.032Z,103049.09
2023-03-01T07:24:13.371Z,103059.38
2023-03-01T07:26:41.033Z,103049.88
2023-03-01T07:29:09.864Z,103058.75
2023-03-01T07:31:38.233Z,103054.47
2023-03-01T07:34:05.862Z,103055.72
2023-03-01T07:36:33.816Z,103068.38
2023-03-01T07:39:03.303Z,103062.50
2023-03-01T07:41:32.653Z,103065.03
2023-03-01T07:44:00.674Z,103062.50
2023-03-01T07:46:28.387Z,103057.44
2023-03-01T07:48:56.072Z,103055.41
2023-03-01T07:51:23.656Z,103063.50
2023-03-01T07:53:51.341Z,103063.03
2023-03-01T07:56:19.719Z,103065.47
2023-03-01T07:58:50.654Z,103063.53
2023-03-01T08:01:20.351Z,103065.22
2023-03-01T08:03:48.288Z,103059.53
2023-03-01T08:06:18.203Z,103064.50
2023-03-01T08:08:46.732Z,103071.19
2023-03-01T08:11:16.191Z,103062.22
2023-03-01T08:13:44.826Z,103069.09
2023-03-01T08:16:15.811Z,103067.56
2023-03-01T08:18:44.369Z,103068.94
2023-03-01T08:21:13.630Z,103064.78
2023-03-01T08:23:41.875Z,103065.84
2023-03-01T08:26:12.906Z,103070.66
2023-03-01T08:28:41.168Z,103071.19
2023-03-01T08:31:18.158Z,103063.75
2023-03-01T08:33:51.350Z,103061.94
2023-03-01T08:36:19.847Z,103057.63
2023-03-01T08:38:47.819Z,103069.72
2023-03-01T08:41:15.474Z,103061.13
2023-03-01T08:43:43.152Z,103055.06
2023-03-01T08:46:11.377Z,103052.72
2023-03-01T08:48:41.247Z,103058.13
2023-03-01T08:51:10.482Z,103052.81
2023-03-01T08:53:38.059Z,103052.69
2023-03-01T08:56:06.344Z,103044.50
2023-03-01T08:58:34.335Z,103058.56
2023-03-01T09:01:02.207Z,103062.41
2023-03-01T09:03:30.663Z,103060.13
2023-03-01T09:06:05.118Z,103058.94
2023-03-01T09:08:36.021Z,103059.47
2023-03-01T09:11:04.351Z,103056.16
2023-03-01T09:13:32.978Z,103052.00
2023-03-01T09:16:01.194Z,103049.09
2023-03-01T09:18:29.260Z,103042.94
2023-03-01T09:21:08.317Z,103033.88
2023-03-01T09:23:37.259Z,103024.69
2023-03-01T09:26:05.145Z,103030.63
2023-03-01T09:28:32.870Z,103033.94
2023-03-01T09:31:01.307Z,103033.09
2023-03-01T09:33:29.863Z,103041.50
2023-03-01T09:36:01.159Z,103035.38
2023-03-01T09:38:30.473Z,103046.34
2023-03-01T09:40:58.219Z,103048.53
2023-03-01T09:43:32.129Z,103061.91
2023-03-01T09:46:05.384Z,103064.31
2023-03-01T09:48:39.574Z,103066.88
2023-03-01T09:51:14.853Z,103071.72
2023-03-01T09:53:43.884Z,103070.94
2023-03-01T09:56:21.875Z,103076.19
2023-03-01T09:58:55.171Z,103085.09
2023-03-01T10:01:35.553Z,103088.03
2023-03-01T10:04:15.190Z,103084.25
2023-03-01T10:06:47.571Z,103086.66
2023-03-01T10:09:18.944Z,103085.97
2023-03-01T10:11:50.758Z,103074.56
2023-03-01T10:14:34.890Z,103075.97
2023-03-01T10:17:05.577Z,103075.28
2023-03-01T10:19:35.824Z,103078.97
2023-03-01T10:22:11.375Z,103083.75
2023-03-01T10:24:40.402Z,103086.03
2023-03-01T10:27:13.589Z,103095.38
2023-03-01T10:29:48.080Z,103091.06
2023-03-01T10:32:16.216Z,103080.41
2023-03-01T10:34:44.073Z,103084.84
2023-03-01T10:37:14.759Z,103089.19
2023-03-01T10:39:59.518Z,103066.56
2023-03-01T10:42:33.082Z,103082.84
2023-03-01T10:45:16.091Z,103068.50
2023-03-01T10:47:43.733Z,103076.00
2023-03-01T10:50:21.615Z,103072.69
2023-03-01T10:52:59.742Z,103062.56
2023-03-01T10:55:35.620Z,103062.84
2023-03-01T10:58:20.080Z,103057.44
2023-03-01T11:00:49.849Z,103062.94
2023-03-01T11:03:23.014Z,103065.28
2023-03-01T11:06:00.216Z,103064.97
2023-03-01T11:08:35.023Z,103071.34
2023-03-01T11:11:15.085Z,103061.19
2023-03-01T11:13:52.873Z,103058.28
2023-03-01T11:16:30.365Z,103047.34
2023-03-01T11:18:59.777Z,103043.59
2023-03-01T11:21:31.171Z,103039.69
2023-03-01T11:24:02.086Z,103035.56
2023-03-01T11:26:37.943Z,103027.63
2023-03-01T11:29:09.447Z,103024.25
2023-03-01T11:31:40.443Z,103024.22
2023-03-01T11:34:15.913Z,103026.25
2023-03-01T11:36:50.036Z,103022.53
2023-03-01T11:39:27.975Z,103013.56
2023-03-01T11:42:18.509Z,103015.91
2023-03-01T11:44:50.045Z,103021.41
2023-03-01T11:47:30.017Z,103014.63
2023-03-01T11:50:16.937Z,103012.63
2023-03-01T11:52:56.925Z,103020.44
2023-03-01T11:55:38.117Z,103018.84
2023-03-01T11:58:36.548Z,103021.56
2023-03-01T12:01:22.164Z,103016.81
2023-03-01T12:04:26.518Z,103012.38
2023-03-01T12:06:59.414Z,103016.06
2023-03-01T12:09:47.830Z,103011.78
2023-03-01T12:12:39.684Z,103020.72
2023-03-01T12:15:44.611Z,103015.28
2023-03-01T12:18:40.487Z,103018.47
2023-03-01T12:21:19.321Z,103014.78
2023-03-01T12:24:12.226Z,103014.38
2023-03-01T12:26:55.448Z,103012.13
2023-03-01T12:29:29.382Z,102997.44
2023-03-01T12:32:14.464Z,103011.78
2023-03-01T12:34:57.841Z,103006.19
2023-03-01T12:37:38.730Z,103001.31
2023-03-01T12:40:37.805Z,102992.16
2023-03-01T12:43:19.760Z,102988.97
2023-03-01T12:46:08.117Z,102991.72
2023-03-01T12:48:44.891Z,102978.81
2023-03-01T12:51:16.763Z,102976.78
2023-03-01T12:53:48.980Z,102970.56
2023-03-01T12:56:19.976Z,102964.47
2023-03-01T12:58:58.778Z,102963.00
2023-03-01T13:01:38.666Z,102959.59
2023-03-01T13:04:29.254Z,102963.44
2023-03-01T13:07:06.183Z,102963.84
2023-03-01T13:09:42.656Z,102958.47
2023-03-01T13:12:43.566Z,102955.28
2023-03-01T13:15:30.079Z,102954.56
2023-03-01T13:17:59.297Z,102955.06
2023-03-01T13:20:33.630Z,102952.31
2023-03-01T13:23:08.419Z,102948.63
2023-03-01T13:25:42.534Z,102942.78
2023-03-01T13:28:41.602Z,102934.94
2023-03-01T13:31:11.041Z,102934.63
2023-03-01T13:33:47.915Z,102932.97
2023-03-01T13:36:50.732Z,102938.25
2023-03-01T13:39:34.387Z,102927.25
2023-03-01T13:42:02.447Z,102927.56
2023-03-01T13:44:34.445Z,102935.06
2023-03-01T13:47:10.475Z,102925.84
2023-03-01T13:49:46.655Z,102925.97
2023-03-01T13:52:36.652Z,102935.50
2023-03-01T13:55:08.045Z,102930.75
2023-03-01T13:57:40.018Z,102928.72
2023-03-01T14:00:09.209Z,102932.00
2023-03-01T14:02:37.689Z,102919.31
2023-03-01T14:05:05.906Z,102922.91
2023-03-01T14:07:37.649Z,102928.19
2023-03-01T14:10:08.660Z,102923.13
2023-03-01T14:12:47.576Z,102927.00
2023-03-01T14:15:22.034Z,102912.63
2023-03-01T14:17:57.980Z,102922.13
2023-03-01T14:20:27.688Z,102912.19
2023-03-01T14:22:59.191Z,102914.13
2023-03-01T14:25:32.820Z,102914.91
2023-03-01T14:28:06.149Z,102912.25
2023-03-01T14:30:38.642Z,102916.16
2023-03-01T14:33:09.093Z,102908.47
2023-03-01T14:35:38.436Z,102915.97
2023-03-01T14:38:07.424Z,102913.19
2023-03-01T14:40:37.155Z,102903.78
2023-03-01T14:43:12.661Z,102909.09
2023-03-01T14:45:40.975Z,102915.41
2023-03-01T14:48:09.752Z,102908.19
2023-03-01T14:50:42.691Z,102903.88
2023-03-01T14:53:19.908Z,102900.94
2023-03-01T14:55:50.622Z,102899.25
2023-03-01T14:58:22.548Z,102899.22
2023-03-01T15:00:54.265Z,102897.78
2023-03-01T15:03:27.880Z,102898.28
2023-03-01T15:05:55.914Z,102890.06
2023-03-01T15:08:27.061Z,102892.16
2023-03-01T15:11:01.047Z,102885.72
2023-03-01T15:13:32.837Z,102879.06
2023-03-01T15:16:11.508Z,102879.28
2023-03-01T15:18:45.146Z,102875.66
2023-03-01T15:21:18.994Z,102875.03
2023-03-01T15:23:54.438Z,102873.78
2023-03-01T15:26:30.770Z,102869.22
2023-03-01T15:29:01.094Z,102877.16
2023-03-01T15:31:31.632Z,102869.84
2023-03-01T15:34:23.154Z,102878.16
2023-03-01T15:36:51.678Z,102879.81
2023-03-01T15:39:44.183Z,102887.81
2023-03-01T15:42:14.398Z,102888.19
2023-03-01T15:44:45.840Z,102890.69
2023-03-01T15:47:29.698Z,102883.44
2023-03-01T15:49:58.901Z,102874.97
2023-03-01T15:52:30.808Z,102878.75
2023-03-01T15:55:02.157Z,102874.34
2023-03-01T15:57:30.184Z,102871.53
2023-03-01T15:59:57.847Z,102875.94
2023-03-01T16:02:26.203Z,102876.75
2023-03-01T16:04:54.666Z,102879.50
2023-03-01T16:07:22.349Z,102887.97
2023-03-01T16:09:50.056Z,102882.72
2023-03-01T16:12:21.363Z,102883.00
2023-03-01T16:14:49.810Z,102869.31
2023-03-01T16:17:17.506Z,102871.25
2023-03-01T16:19:45.131Z,102871.25
2023-03-01T16:22:12.918Z,102872.66
2023-03-01T16:24:41.828Z,102868.53
2023-03-01T16:27:09.430Z,102867.03
2023-03-01T16:29:38.739Z,102860.63
2023-03-01T16:32:07.011Z,102870.91
2023-03-01T16:34:34.825Z,102871.00
2023-03-01T16:37:02.392Z,102873.91
2023-03-01T16:39:30.061Z,102869.81
2023-03-01T16:41:57.843Z,102870.75
2023-03-01T16:44:25.548Z,102871.31
2023-03-01T16:46:54.502Z,102873.09
2023-03-01T16:49:22.116Z,102868.47
2023-03-01T16:51:49.862Z,102866.69
2023-03-01T16:54:17.650Z,102865.78
2023-03-01T16:56:45.267Z,102865.38
2023-03-01T16:59:13.084Z,102874.44
2023-03-01T17:01:41.612Z,102868.75
2023-03-01T17:04:13.017Z,102869.06
2023-03-01T17:06:41.052Z,102874.50
2023-03-01T17:09:08.726Z,102886.34
2023-03-01T17:11:37.569Z,102882.06
2023-03-01T17:14:05.277Z,102887.34
2023-03-01T17:16:33.160Z,102882.91
2023-03-01T17:19:00.865Z,102885.28
2023-03-01T17:21:29.950Z,102884.06
2023-03-01T17:23:58.933Z,102886.41
2023-03-01T17:26:26.682Z,102888.97
2023-03-01T17:28:54.354Z,102891.28
2023-03-01T17:31:22.914Z,102890.16
2023-03-01T17:33:52.332Z,102885.16
2023-03-01T17:36:20.204Z,102887.06
2023-03-01T17:38:49.740Z,102899.44
2023-03-01T17:41:18.741Z,102901.25
2023-03-01T17:43:46.467Z,102903.44
2023-03-01T17:46:14.912Z,102907.88
2023-03-01T17:48:42.605Z,102916.44
2023-03-01T17:51:12.568Z,102918.53
2023-03-01T17:53:40.263Z,102915.47
2023-03-01T17:56:10.163Z,102926.47
2023-03-01T17:58:39.325Z,102913.13
2023-03-01T18:01:12.602Z,102909.56
2023-03-01T18:03:40.963Z,102921.13
2023-03-01T18:06:13.626Z,102924.47
2023-03-01T18:08:41.231Z,102931.16
2023-03-01T18:11:10.339Z,102923.25
2023-03-01T18:13:38.277Z,102915.19
2023-03-01T18:16:07.347Z,102926.00
2023-03-01T18:18:35.172Z,102926.75
2023-03-01T18:21:03.664Z,102921.44
2023-03-01T18:23:32.449Z,102923.59
2023-03-01T18:26:01.747Z,102917.50
2023-03-01T18:28:33.537Z,102916.75
2023-03-01T18:31:03.635Z,102920.91
2023-03-01T18:33:31.435Z,102922.41
2023-03-01T18:35:59.250Z,102932.94
2023-03-01T18:38:26.930Z,102925.50
2023-03-01T18:40:54.608Z,102933.56
2023-03-01T18:43:22.302Z,102923.53
2023-03-01T18:45:57.709Z,102930.56
2023-03-01T18:48:25.718Z,102926.00
2023-03-01T18:50:53.405Z,102931.84
2023-03-01T18:53:21.053Z,102925.28
2023-03-01T18:55:48.812Z,102933.88
2023-03-01T18:58:16.433Z,102932.78
2023-03-01T19:00:44.026Z,102934.16
2023-03-01T19:03:13.006Z,102934.50
2023-03-01T19:05:42.277Z,102937.91
2023-03-01T19:08:09.991Z,102939.16
2023-03-01T19:10:37.614Z,102936.94
2023-03-01T19:13:05.238Z,102947.75
2023-03-01T19:15:32.904Z,102942.50
2023-03-01T19:18:01.920Z,102930.59
2023-03-01T19:20:30.958Z,102935.78
2023-03-01T19:22:58.601Z,102936.31
2023-03-01T19:25:26.279Z,102934.59
2023-03-01T19:27:53.898Z,102938.06
2023-03-01T19:30:23.285Z,102935.19
2023-03-01T19:32:52.208Z,102944.44
2023-03-01T19:35:20.114Z,102936.66
2023-03-01T19:37:49.231Z,102935.69
2023-03-01T19:40:17.057Z,102935.28
2023-03-01T19:42:44.641Z,102938.50
2023-03-01T19:45:12.902Z,102937.81
2023-03-01T19:47:41.261Z,102931.28
2023-03-01T19:50:10.091Z,102943.41
2023-03-01T19:52:37.713Z,102951.22
2023-03-01T19:55:09.979Z,102956.31
2023-03-01T19:57:37.852Z,102953.50
2023-03-01T20:00:06.561Z,102953.34
2023-03-01T20:02:34.238Z,102952.38
2023-03-01T20:05:01.969Z,102951.75
2023-03-01T20:07:29.616Z,102946.66
2023-03-01T20:09:57.226Z,102948.25
2023-03-01T20:12:26.256Z,102948.31
2023-03-01T20:14:55.460Z,102946.31
2023-03-01T20:17:23.211Z,102931.97
2023-03-01T20:19:50.953Z,102929.31
2023-03-01T20:22:19.213Z,102933.38
2023-03-01T20:24:46.975Z,102946.72
2023-03-01T20:27:14.642Z,102936.94
2023-03-01T20:29:45.816Z,102941.09
2023-03-01T20:32:13.997Z,102934.06
2023-03-01T20:34:41.626Z,102937.50
2023-03-01T20:37:09.863Z,102936.94
2023-03-01T20:39:37.557Z,102943.91
2023-03-01T20:42:05.246Z,102937.03
2023-03-01T20:44:32.857Z,102954.59
2023-03-01T20:47:02.072Z,102952.16
2023-03-01T20:49:29.755Z,102952.72
2023-03-01T20:51:57.391Z,102950.94
2023-03-01T20:54:27.796Z,102951.13
2023-03-01T20:56:55.605Z,102939.66
2023-03-01T20:59:23.861Z,102941.69
2023-03-01T21:01:52.145Z,102931.16
2023-03-01T21:04:21.882Z,102930.81
2023-03-01T21:06:49.512Z,102928.97
2023-03-01T21:09:17.334Z,102931.69
2023-03-01T21:11:44.978Z,102929.91
2023-03-01T21:14:13.159Z,102936.94
2023-03-01T21:16:41.189Z,102931.84
2023-03-01T21:19:08.926Z,102929.31
2023-03-01T21:21:37.899Z,102931.69
2023-03-01T21:24:06.489Z,102937.81
2023-03-01T21:26:34.721Z,102936.47
2023-03-01T21:29:03.471Z,102941.72
2023-03-01T21:31:34.016Z,102940.03
2023-03-01T21:34:05.050Z,102940.88
2023-03-01T21:36:33.727Z,102932.03
2023-03-01T21:39:03.101Z,102943.22
2023-03-01T21:41:33.087Z,102938.31
2023-03-01T21:44:03.063Z,102935.69
2023-03-01T21:46:33.835Z,102929.44
2023-03-01T21:49:02.578Z,102929.66
2023-03-01T21:51:31.318Z,102928.59
2023-03-01T21:54:01.168Z,102929.44
2023-03-01T21:56:34.435Z,102932.91
2023-03-01T21:59:02.678Z,102929.94
2023-03-01T22:01:30.421Z,102914.00
2023-03-01T22:04:00.159Z,102921.03
2023-03-01T22:06:30.720Z,102915.25
2023-03-01T22:09:01.025Z,102921.28
2023-03-01T22:11:30.417Z,102906.16
2023-03-01T22:13:58.055Z,102896.97
2023-03-01T22:16:29.183Z,102904.84
2023-03-01T22:18:57.865Z,102909.66
2023-03-01T22:21:27.067Z,102906.63
2023-03-01T22:23:55.884Z,102916.19
2023-03-01T22:26:26.817Z,102909.16
2023-03-01T22:28:58.396Z,102906.53
2023-03-01T22:31:26.993Z,102914.16
2023-03-01T22:33:55.476Z,102922.63
2023-03-01T22:36:24.191Z,102921.28
2023-03-01T22:38:56.184Z,102917.47
2023-03-01T22:41:23.803Z,102912.88
2023-03-01T22:43:51.455Z,102926.53
2023-03-01T22:46:20.872Z,102927.78
2023-03-01T22:48:49.153Z,102913.50
2023-03-01T22:51:17.254Z,102919.41
2023-03-01T22:53:45.074Z,102916.94
2023-03-01T22:56:15.123Z,102921.22
2023-03-01T22:58:43.164Z,102916.69
2023-03-01T23:01:12.611Z,102925.34
2023-03-01T23:03:41.987Z,102918.22
2023-03-01T23:06:10.001Z,102923.50
2023-03-01T23:08:37.752Z,102929.78
2023-03-01T23:11:11.795Z,102923.72
2023-03-01T23:13:40.077Z,102933.25
2023-03-01T23:16:09.358Z,102920.94
2023-03-01T23:18:37.344Z,102918.31
2023-03-01T23:21:11.487Z,102913.22
2023-03-01T23:23:39.201Z,102915.66
2023-03-01T23:26:07.844Z,102911.19
2023-03-01T23:28:36.741Z,102913.88
2023-03-01T23:31:06.520Z,102905.50
2023-03-01T23:33:37.809Z,102906.00
2023-03-01T23:36:06.876Z,102899.97
2023-03-01T23:38:35.938Z,102898.00
2023-03-01T23:41:03.626Z,102904.06
2023-03-01T23:43:33.023Z,102903.53
2023-03-01T23:46:01.121Z,102908.69
2023-03-01T23:48:28.823Z,102899.28
2023-03-01T23:50:56.633Z,102905.41
2023-03-01T23:53:24.222Z,102895.13
2023-03-01T23:55:55.333Z,102905.19
2023-03-01T23:58:28.541Z,102905.56
